Datum - Zeit
Döttingen
TemperaturTaupunktFeuchteSolar Wind aus
Richtung
Windböenaus
Richtung
Luftdruck
(QFF)
RegenRegen
Stärke
20.06.2021 - 00.00Uhr23.1 °C20.1 °C83 %0.0 W/m²1.1 km/hSüdosten4.0 km/hSüdosten1009.1 hPa0.0 mm0.0 mm/h
20.06.2021 - 00.05Uhr23.2 °C20.3 °C84 %0.0 W/m²1.4 km/hSüdosten4.0 km/hSüdosten1009.1 hPa0.0 mm0.0 mm/h
20.06.2021 - 00.10Uhr23.2 °C20.2 °C83 %0.0 W/m²5.4 km/hSüdosten8.3 km/hSüdosten1009.1 hPa0.0 mm0.0 mm/h
20.06.2021 - 00.15Uhr23.2 °C20.3 °C84 %0.0 W/m²1.6 km/hSüdosten8.3 km/hOst-SO1009.2 hPa0.0 mm0.0 mm/h
20.06.2021 - 00.20Uhr23.1 °C20.2 °C84 %0.0 W/m²0.0 km/hSüdosten0.0 km/hNorden1009.2 hPa0.0 mm0.0 mm/h
20.06.2021 - 00.25Uhr23.3 °C20.2 °C83 %0.0 W/m²1.7 km/hSüdosten4.0 km/hOst-SO1009.1 hPa0.0 mm0.0 mm/h
20.06.2021 - 00.30Uhr23.3 °C20.2 °C83 %0.0 W/m²0.1 km/hSüdosten1.8 km/hSüdosten1009.1 hPa0.0 mm0.0 mm/h
20.06.2021 - 00.35Uhr22.9 °C20.1 °C84 %0.0 W/m²0.0 km/hSüdosten0.0 km/hNorden1009.3 hPa0.0 mm0.0 mm/h
20.06.2021 - 00.40Uhr22.8 °C20.0 °C84 %0.0 W/m²2.1 km/hSüdosten8.3 km/hOst-SO1009.2 hPa0.0 mm0.0 mm/h
20.06.2021 - 00.45Uhr22.7 °C19.9 °C84 %0.0 W/m²0.3 km/hSüdosten4.0 km/hSüdosten1009.2 hPa0.0 mm0.0 mm/h
20.06.2021 - 00.50Uhr22.7 °C19.9 °C84 %0.0 W/m²2.5 km/hSüdosten8.3 km/hOst-SO1009.2 hPa0.0 mm0.0 mm/h
20.06.2021 - 00.55Uhr22.6 °C19.9 °C85 %0.0 W/m²1.6 km/hSüdosten8.3 km/hOst-SO1009.2 hPa0.0 mm0.0 mm/h
20.06.2021 - 01.00Uhr22.6 °C19.9 °C84 %0.0 W/m²5.7 km/hSüdosten8.3 km/hOst-SO1009.1 hPa0.0 mm0.0 mm/h
20.06.2021 - 01.05Uhr22.3 °C19.7 °C85 %0.0 W/m²3.3 km/hSüdosten8.3 km/hSüdosten1009.1 hPa0.0 mm0.0 mm/h
20.06.2021 - 01.10Uhr22.3 °C19.7 °C85 %0.0 W/m²5.2 km/hSüdosten8.3 km/hSüdosten1009.1 hPa0.0 mm0.0 mm/h
20.06.2021 - 01.15Uhr22.1 °C19.5 °C85 %0.0 W/m²3.9 km/hSüdosten8.3 km/hSüdosten1008.9 hPa0.0 mm0.0 mm/h
20.06.2021 - 01.20Uhr22.2 °C19.6 °C85 %0.0 W/m²0.2 km/hSüdosten1.8 km/hSüdosten1008.8 hPa0.0 mm0.0 mm/h
20.06.2021 - 01.25Uhr22.4 °C19.8 °C85 %0.0 W/m²2.3 km/hSüdosten8.3 km/hSüdosten1008.7 hPa0.0 mm0.0 mm/h
20.06.2021 - 01.30Uhr22.3 °C19.7 °C85 %0.0 W/m²0.0 km/hSüdosten0.0 km/hNorden1008.7 hPa0.0 mm0.0 mm/h
20.06.2021 - 01.35Uhr22.1 °C19.5 °C85 %0.0 W/m²4.1 km/hSüdosten8.3 km/hSüdosten1008.8 hPa0.0 mm0.0 mm/h
20.06.2021 - 01.40Uhr21.9 °C19.3 °C85 %0.0 W/m²2.2 km/hSüdosten4.0 km/hSüdosten1008.9 hPa0.0 mm0.0 mm/h
20.06.2021 - 01.45Uhr21.8 °C19.2 °C85 %0.0 W/m²0.0 km/hSüdosten0.0 km/hNorden1009.0 hPa0.0 mm0.0 mm/h
20.06.2021 - 01.50Uhr21.9 °C19.3 °C85 %0.0 W/m²0.0 km/hSüdosten0.0 km/hNorden1009.1 hPa0.0 mm0.0 mm/h
20.06.2021 - 01.55Uhr21.7 °C19.1 °C85 %0.0 W/m²0.8 km/hSüdosten4.0 km/hSüdosten1009.3 hPa0.0 mm0.0 mm/h
20.06.2021 - 02.00Uhr21.6 °C19.0 °C85 %0.0 W/m²4.2 km/hSüdosten8.3 km/hSüdosten1009.5 hPa0.0 mm0.0 mm/h
20.06.2021 - 02.05Uhr21.8 °C19.1 °C85 %0.0 W/m²3.6 km/hWest-SW8.3 km/hSüdosten1009.8 hPa0.0 mm0.0 mm/h
20.06.2021 - 02.10Uhr21.8 °C19.2 °C85 %0.0 W/m²2.0 km/hNordwesten4.0 km/hNordwesten1009.8 hPa0.0 mm0.0 mm/h
20.06.2021 - 02.15Uhr21.8 °C19.2 °C85 %0.0 W/m²4.8 km/hNord-NW8.3 km/hNordwesten1009.7 hPa0.0 mm0.0 mm/h
20.06.2021 - 02.20Uhr22.1 °C19.5 °C85 %0.0 W/m²2.8 km/hNorden8.3 km/hNorden1009.7 hPa0.0 mm0.0 mm/h
20.06.2021 - 02.25Uhr22.5 °C19.8 °C85 %0.0 W/m²2.6 km/hNorden8.3 km/hNorden1009.6 hPa0.0 mm0.0 mm/h
20.06.2021 - 02.30Uhr23.0 °C20.0 °C83 %0.0 W/m²3.3 km/hNorden8.3 km/hNorden1009.6 hPa0.0 mm0.0 mm/h
20.06.2021 - 02.35Uhr23.0 °C19.8 °C82 %0.0 W/m²4.8 km/hNord-NO12.2 km/hNord-NW1009.7 hPa0.0 mm0.0 mm/h
20.06.2021 - 02.40Uhr23.0 °C19.8 °C82 %0.0 W/m²10.6 km/hNord-NW18.0 km/hNorden1009.7 hPa0.0 mm0.0 mm/h
20.06.2021 - 02.45Uhr23.3 °C19.6 °C80 %0.0 W/m²7.0 km/hWest-NW12.2 km/hWesten1009.8 hPa0.0 mm0.0 mm/h
20.06.2021 - 02.50Uhr23.4 °C19.4 °C79 %0.0 W/m²15.4 km/hWest-NW32.4 km/hWest-NW1010.0 hPa0.0 mm0.0 mm/h
20.06.2021 - 02.55Uhr23.9 °C19.2 °C75 %0.0 W/m²19.6 km/hWest-NW32.4 km/hWesten1010.0 hPa0.0 mm0.0 mm/h
20.06.2021 - 03.00Uhr24.3 °C18.8 °C71 %0.0 W/m²20.5 km/hWest-NW44.3 km/hWest-NW1009.9 hPa0.0 mm0.0 mm/h
20.06.2021 - 03.05Uhr24.3 °C18.7 °C71 %0.0 W/m²16.1 km/hWest-NW24.5 km/hWesten1010.2 hPa0.0 mm0.0 mm/h
20.06.2021 - 03.10Uhr24.1 °C18.5 °C71 %0.0 W/m²16.5 km/hWest-NW36.0 km/hWesten1010.3 hPa0.0 mm0.0 mm/h
20.06.2021 - 03.15Uhr23.9 °C18.2 °C70 %0.0 W/m²21.3 km/hWest-NW38.2 km/hWest-SW1010.4 hPa0.0 mm0.0 mm/h
20.06.2021 - 03.20Uhr23.7 °C17.9 °C70 %0.0 W/m²17.0 km/hWest-NW38.2 km/hWest-NW1010.5 hPa0.0 mm0.0 mm/h
20.06.2021 - 03.25Uhr23.5 °C18.1 °C72 %0.0 W/m²17.3 km/hWest-NW30.2 km/hWest-SW1010.6 hPa0.0 mm0.0 mm/h
20.06.2021 - 03.30Uhr23.3 °C18.0 °C72 %0.0 W/m²16.5 km/hWest-NW26.3 km/hWesten1010.5 hPa0.0 mm0.0 mm/h
20.06.2021 - 03.35Uhr23.2 °C17.9 °C72 %0.0 W/m²21.4 km/hWesten36.0 km/hWest-NW1010.7 hPa0.0 mm0.0 mm/h
20.06.2021 - 03.40Uhr23.1 °C17.8 °C72 %0.0 W/m²17.9 km/hWest-NW34.2 km/hWesten1010.8 hPa0.0 mm0.0 mm/h
20.06.2021 - 03.45Uhr22.9 °C17.8 °C73 %0.0 W/m²13.6 km/hWest-NW26.3 km/hNordwesten1010.8 hPa0.0 mm0.0 mm/h
20.06.2021 - 03.50Uhr22.7 °C17.6 °C73 %0.0 W/m²16.5 km/hWest-NW24.5 km/hWest-NW1010.7 hPa0.0 mm0.0 mm/h
20.06.2021 - 03.55Uhr22.5 °C17.5 °C73 %0.0 W/m²22.3 km/hWest-NW50.4 km/hWest-NW1010.7 hPa0.0 mm0.0 mm/h
20.06.2021 - 04.00Uhr22.3 °C17.1 °C73 %0.0 W/m²16.3 km/hWest-NW26.3 km/hWesten1010.7 hPa0.0 mm0.0 mm/h
20.06.2021 - 04.05Uhr22.3 °C16.9 °C72 %0.0 W/m²21.1 km/hWesten46.4 km/hWest-NW1011.1 hPa0.0 mm0.0 mm/h
20.06.2021 - 04.10Uhr22.3 °C16.6 °C70 %0.0 W/m²17.9 km/hWest-NW28.4 km/hWest-NW1011.4 hPa0.0 mm0.0 mm/h
20.06.2021 - 04.15Uhr22.3 °C16.4 °C69 %0.0 W/m²23.2 km/hWest-NW44.3 km/hWesten1011.1 hPa0.0 mm0.0 mm/h
20.06.2021 - 04.20Uhr22.2 °C16.2 °C69 %0.0 W/m²21.5 km/hWest-NW36.0 km/hWest-NW1011.2 hPa0.0 mm0.0 mm/h
20.06.2021 - 04.25Uhr22.1 °C16.2 °C69 %0.0 W/m²23.7 km/hWest-NW38.2 km/hWesten1011.3 hPa0.0 mm0.0 mm/h
20.06.2021 - 04.30Uhr21.9 °C16.4 °C71 %0.0 W/m²16.2 km/hWest-NW26.3 km/hWesten1011.7 hPa0.0 mm0.0 mm/h
20.06.2021 - 04.35Uhr21.2 °C16.9 °C77 %0.0 W/m²6.3 km/hWest-NW12.2 km/hWest-NW1011.8 hPa0.0 mm0.0 mm/h
20.06.2021 - 04.40Uhr20.3 °C16.7 °C80 %0.0 W/m²2.5 km/hWest-NW5.8 km/hWest-NW1011.8 hPa0.0 mm0.0 mm/h
20.06.2021 - 04.45Uhr20.0 °C16.7 °C81 %0.0 W/m²6.6 km/hWesten16.2 km/hWesten1011.8 hPa0.0 mm0.0 mm/h
20.06.2021 - 04.50Uhr19.9 °C16.4 °C81 %0.0 W/m²8.8 km/hWesten16.2 km/hWest-NW1011.7 hPa0.0 mm0.0 mm/h
20.06.2021 - 04.55Uhr20.2 °C16.4 °C79 %0.0 W/m²7.7 km/hWest-NW16.2 km/hWest-NW1011.5 hPa0.0 mm0.0 mm/h
20.06.2021 - 05.00Uhr20.3 °C16.5 °C79 %0.0 W/m²7.1 km/hWest-NW12.2 km/hWest-NW1011.4 hPa0.0 mm0.0 mm/h
20.06.2021 - 05.05Uhr20.3 °C16.5 °C79 %0.0 W/m²8.2 km/hWesten14.0 km/hWesten1011.5 hPa0.0 mm0.0 mm/h
20.06.2021 - 05.10Uhr20.4 °C16.4 °C78 %0.0 W/m²9.7 km/hWesten18.0 km/hWesten1011.4 hPa0.0 mm0.0 mm/h
20.06.2021 - 05.15Uhr20.5 °C16.5 °C78 %0.0 W/m²7.7 km/hWesten10.1 km/hWesten1011.4 hPa0.0 mm0.0 mm/h
20.06.2021 - 05.20Uhr20.4 °C16.5 °C78 %0.0 W/m²6.0 km/hWesten12.2 km/hWesten1011.3 hPa0.0 mm0.0 mm/h
20.06.2021 - 05.25Uhr20.4 °C16.6 °C79 %0.0 W/m²3.3 km/hWesten8.3 km/hNordwesten1011.4 hPa0.0 mm0.0 mm/h
20.06.2021 - 05.30Uhr20.4 °C16.6 °C79 %0.0 W/m²5.5 km/hNordwesten8.3 km/hNordwesten1011.5 hPa0.0 mm0.0 mm/h
20.06.2021 - 05.35Uhr20.2 °C16.6 °C80 %0.0 W/m²4.5 km/hNord-NW8.3 km/hNord-NW1011.4 hPa0.0 mm0.0 mm/h
20.06.2021 - 05.40Uhr20.1 °C16.5 °C80 %0.0 W/m²1.7 km/hNord-NW5.8 km/hNord-NW1011.5 hPa0.0 mm0.0 mm/h
20.06.2021 - 05.45Uhr20.0 °C16.4 °C80 %5.0 W/m²3.6 km/hNord-NW8.3 km/hNord-NW1011.5 hPa0.0 mm0.0 mm/h
20.06.2021 - 05.50Uhr20.0 °C16.4 °C80 %5.0 W/m²4.3 km/hNord-NW8.3 km/hNord-NW1011.3 hPa0.0 mm0.0 mm/h
20.06.2021 - 05.55Uhr20.1 °C16.4 °C80 %9.0 W/m²1.1 km/hNord-NW4.0 km/hNord-NW1011.2 hPa0.0 mm0.0 mm/h
20.06.2021 - 06.00Uhr20.1 °C16.5 °C80 %11.0 W/m²0.0 km/hNord-NW0.0 km/hNorden1011.2 hPa0.0 mm0.0 mm/h
20.06.2021 - 06.05Uhr19.9 °C16.5 °C81 %12.0 W/m²0.0 km/hNord-NW0.0 km/hNorden1011.2 hPa0.0 mm0.0 mm/h
20.06.2021 - 06.10Uhr20.2 °C16.5 °C80 %14.0 W/m²0.0 km/hNord-NW0.0 km/hNorden1011.2 hPa0.0 mm0.0 mm/h
20.06.2021 - 06.15Uhr20.5 °C16.5 °C78 %16.0 W/m²0.0 km/hNord-NW0.0 km/hNorden1011.1 hPa0.0 mm0.0 mm/h
20.06.2021 - 06.20Uhr20.4 °C16.6 °C79 %19.0 W/m²0.0 km/hNord-NW0.0 km/hNorden1011.0 hPa0.0 mm0.0 mm/h
20.06.2021 - 06.25Uhr20.2 °C16.6 °C80 %25.0 W/m²0.0 km/hNord-NW0.0 km/hNorden1010.9 hPa0.0 mm0.0 mm/h
20.06.2021 - 06.30Uhr20.0 °C16.6 °C81 %26.0 W/m²0.0 km/hNord-NW0.0 km/hNorden1011.0 hPa0.0 mm0.0 mm/h
20.06.2021 - 06.35Uhr19.8 °C16.5 °C82 %32.0 W/m²0.0 km/hNord-NW0.0 km/hNorden1011.2 hPa0.0 mm0.0 mm/h
20.06.2021 - 06.40Uhr19.4 °C16.5 °C83 %33.0 W/m²3.2 km/hNord-NW5.8 km/hNord-NW1011.2 hPa0.0 mm0.0 mm/h
20.06.2021 - 06.45Uhr19.6 °C16.5 °C82 %35.0 W/m²3.7 km/hNord-NW8.3 km/hNord-NW1011.3 hPa0.0 mm0.0 mm/h
20.06.2021 - 06.50Uhr20.0 °C16.6 °C81 %42.0 W/m²0.0 km/hNord-NW0.0 km/hNorden1011.4 hPa0.0 mm0.0 mm/h
20.06.2021 - 06.55Uhr20.3 °C17.0 °C82 %42.0 W/m²0.2 km/hNord-NW1.8 km/hNord-NW1011.4 hPa0.0 mm0.0 mm/h
20.06.2021 - 07.00Uhr20.2 °C17.1 °C83 %40.0 W/m²3.0 km/hNord-NW5.8 km/hNord-NW1011.2 hPa0.0 mm0.0 mm/h
20.06.2021 - 07.05Uhr20.1 °C17.0 °C82 %54.0 W/m²3.0 km/hNord-NW5.8 km/hNord-NW1011.2 hPa0.0 mm0.0 mm/h
20.06.2021 - 07.10Uhr20.3 °C17.1 °C82 %74.0 W/m²0.0 km/hNord-NW0.0 km/hNorden1011.2 hPa0.0 mm0.0 mm/h
20.06.2021 - 07.15Uhr20.4 °C17.0 °C81 %77.0 W/m²2.2 km/hNord-NW5.8 km/hNord-NW1011.1 hPa0.0 mm0.0 mm/h
20.06.2021 - 07.20Uhr20.4 °C17.1 °C82 %77.0 W/m²0.3 km/hNord-NW1.8 km/hNord-NW1010.9 hPa0.0 mm0.0 mm/h
20.06.2021 - 07.25Uhr20.3 °C17.2 °C83 %72.0 W/m²0.0 km/hNord-NW0.0 km/hNorden1010.7 hPa0.0 mm0.0 mm/h
20.06.2021 - 07.30Uhr20.2 °C17.3 °C84 %69.0 W/m²0.0 km/hNord-NW0.0 km/hNorden1010.5 hPa0.0 mm0.0 mm/h
20.06.2021 - 07.35Uhr20.5 °C17.3 °C82 %63.0 W/m²0.0 km/hNord-NW0.0 km/hNorden1010.4 hPa0.0 mm0.0 mm/h
20.06.2021 - 07.40Uhr20.2 °C17.3 °C83 %65.0 W/m²0.0 km/hNord-NW0.0 km/hNorden1010.4 hPa0.0 mm0.0 mm/h
20.06.2021 - 07.45Uhr20.3 °C17.3 °C83 %65.0 W/m²0.0 km/hNord-NW0.0 km/hNorden1010.5 hPa0.0 mm0.0 mm/h
20.06.2021 - 07.50Uhr20.5 °C17.3 °C82 %53.0 W/m²0.0 km/hNord-NW0.0 km/hNorden1010.6 hPa0.0 mm0.0 mm/h
20.06.2021 - 07.55Uhr20.4 °C17.2 °C82 %37.0 W/m²1.2 km/hNord-NW4.0 km/hNord-NW1010.7 hPa0.0 mm0.0 mm/h
20.06.2021 - 08.00Uhr20.3 °C16.9 °C81 %37.0 W/m²3.8 km/hNord-NW8.3 km/hNord-NW1010.6 hPa0.0 mm0.0 mm/h
20.06.2021 - 08.05Uhr20.3 °C16.9 °C81 %39.0 W/m²2.4 km/hNord-NW5.8 km/hNord-NW1010.7 hPa0.0 mm0.0 mm/h
20.06.2021 - 08.10Uhr20.4 °C17.0 °C81 %44.0 W/m²2.3 km/hNord-NW5.8 km/hNord-NW1010.7 hPa0.0 mm0.0 mm/h
20.06.2021 - 08.15Uhr20.4 °C17.3 °C82 %54.0 W/m²6.1 km/hOst-NO8.3 km/hOsten1010.7 hPa0.0 mm0.0 mm/h
20.06.2021 - 08.20Uhr20.2 °C17.2 °C83 %56.0 W/m²8.0 km/hOst-SO10.1 km/hOst-SO1010.7 hPa0.0 mm0.0 mm/h
20.06.2021 - 08.25Uhr20.3 °C17.3 °C83 %65.0 W/m²5.2 km/hOst-SO8.3 km/hOst-SO1010.6 hPa0.0 mm0.0 mm/h
20.06.2021 - 08.30Uhr20.3 °C17.3 °C83 %77.0 W/m²4.0 km/hOst-SO8.3 km/hOst-SO1010.6 hPa0.0 mm0.0 mm/h
20.06.2021 - 08.35Uhr20.4 °C17.3 °C82 %105.0 W/m²0.7 km/hOst-SO4.0 km/hOst-SO1010.6 hPa0.0 mm0.0 mm/h
20.06.2021 - 08.40Uhr20.5 °C17.5 °C83 %123.0 W/m²2.8 km/hOst-SO8.3 km/hOst-SO1010.5 hPa0.0 mm0.0 mm/h
20.06.2021 - 08.45Uhr20.6 °C17.6 °C83 %125.0 W/m²2.7 km/hOst-SO8.3 km/hOst-SO1010.5 hPa0.0 mm0.0 mm/h
20.06.2021 - 08.50Uhr20.6 °C17.7 °C83 %118.0 W/m²0.3 km/hOst-SO1.8 km/hOst-SO1010.5 hPa0.0 mm0.0 mm/h
20.06.2021 - 08.55Uhr20.6 °C17.8 °C84 %121.0 W/m²0.0 km/hOst-SO0.0 km/hNorden1010.5 hPa0.0 mm0.0 mm/h
20.06.2021 - 09.00Uhr20.6 °C17.7 °C84 %123.0 W/m²0.0 km/hOst-SO0.0 km/hNorden1010.6 hPa0.0 mm0.0 mm/h
20.06.2021 - 09.05Uhr20.7 °C17.6 °C83 %128.0 W/m²0.0 km/hOst-SO0.0 km/hNorden1010.7 hPa0.0 mm0.0 mm/h
20.06.2021 - 09.10Uhr20.9 °C17.4 °C80 %141.0 W/m²0.0 km/hOst-SO0.0 km/hNorden1010.6 hPa0.0 mm0.0 mm/h
20.06.2021 - 09.15Uhr20.9 °C17.8 °C82 %146.0 W/m²0.0 km/hOst-SO0.0 km/hNorden1010.7 hPa0.0 mm0.0 mm/h
20.06.2021 - 09.20Uhr20.6 °C17.7 °C84 %169.0 W/m²0.0 km/hOst-SO0.0 km/hNorden1010.7 hPa0.0 mm0.0 mm/h
20.06.2021 - 09.25Uhr20.6 °C17.8 °C84 %172.0 W/m²0.0 km/hOst-SO0.0 km/hNorden1010.6 hPa0.0 mm0.0 mm/h
20.06.2021 - 09.30Uhr20.6 °C17.8 °C84 %151.0 W/m²2.3 km/hOst-SO8.3 km/hOst-SO1010.7 hPa0.0 mm0.0 mm/h
20.06.2021 - 09.35Uhr20.6 °C17.7 °C83 %190.0 W/m²2.3 km/hOst-SO4.0 km/hOst-SO1010.7 hPa0.0 mm0.0 mm/h
20.06.2021 - 09.40Uhr20.8 °C18.0 °C84 %181.0 W/m²3.1 km/hOst-SO8.3 km/hOst-SO1010.8 hPa0.0 mm0.0 mm/h
20.06.2021 - 09.45Uhr20.9 °C18.0 °C84 %144.0 W/m²2.8 km/hOst-SO8.3 km/hOst-SO1010.8 hPa0.0 mm0.0 mm/h
20.06.2021 - 09.50Uhr20.8 °C18.0 °C84 %156.0 W/m²1.6 km/hOst-SO4.0 km/hOst-SO1010.7 hPa0.0 mm0.0 mm/h
20.06.2021 - 09.55Uhr20.8 °C18.0 °C84 %179.0 W/m²0.0 km/hOst-SO0.0 km/hNorden1010.6 hPa0.0 mm0.0 mm/h
20.06.2021 - 10.00Uhr20.8 °C18.0 °C84 %199.0 W/m²0.0 km/hOst-SO0.0 km/hNorden1010.6 hPa0.0 mm0.0 mm/h
20.06.2021 - 10.05Uhr21.0 °C18.2 °C84 %209.0 W/m²1.4 km/hOst-SO4.0 km/hOst-SO1010.4 hPa0.0 mm0.0 mm/h
20.06.2021 - 10.10Uhr21.3 °C17.8 °C80 %223.0 W/m²2.5 km/hOst-SO8.3 km/hOst-SO1010.3 hPa0.0 mm0.0 mm/h
20.06.2021 - 10.15Uhr21.4 °C17.9 °C80 %267.0 W/m²2.4 km/hOst-SO10.1 km/hOst-SO1010.3 hPa0.0 mm0.0 mm/h
20.06.2021 - 10.20Uhr21.5 °C17.9 °C80 %302.0 W/m²2.7 km/hOst-SO8.3 km/hOst-SO1010.2 hPa0.0 mm0.0 mm/h
20.06.2021 - 10.25Uhr21.8 °C18.1 °C80 %388.0 W/m²1.5 km/hOst-SO4.0 km/hOst-SO1010.2 hPa0.0 mm0.0 mm/h
20.06.2021 - 10.30Uhr22.1 °C18.3 °C79 %432.0 W/m²0.5 km/hOst-SO1.8 km/hOst-SO1010.3 hPa0.0 mm0.0 mm/h
20.06.2021 - 10.35Uhr22.4 °C18.4 °C78 %432.0 W/m²1.7 km/hOst-SO8.3 km/hOst-SO1010.3 hPa0.0 mm0.0 mm/h
20.06.2021 - 10.40Uhr22.4 °C18.8 °C80 %378.0 W/m²1.8 km/hOst-SO8.3 km/hOst-SO1010.3 hPa0.0 mm0.0 mm/h
20.06.2021 - 10.45Uhr22.4 °C18.6 °C80 %376.0 W/m²3.1 km/hOst-SO8.3 km/hOst-SO1010.3 hPa0.0 mm0.0 mm/h
20.06.2021 - 10.50Uhr22.5 °C18.5 °C78 %418.0 W/m²1.5 km/hOst-SO4.0 km/hOst-SO1010.3 hPa0.0 mm0.0 mm/h
20.06.2021 - 10.55Uhr22.8 °C18.9 °C79 %701.0 W/m²2.7 km/hOst-SO8.3 km/hOst-SO1010.3 hPa0.0 mm0.0 mm/h
20.06.2021 - 11.00Uhr23.1 °C18.6 °C75 %548.0 W/m²3.4 km/hOst-SO12.2 km/hOst-SO1010.0 hPa0.0 mm0.0 mm/h
20.06.2021 - 11.05Uhr23.0 °C18.0 °C74 %671.0 W/m²2.8 km/hOst-SO10.1 km/hOst-SO1009.9 hPa0.0 mm0.0 mm/h
20.06.2021 - 11.10Uhr23.5 °C18.6 °C74 %795.0 W/m²2.5 km/hOsten8.3 km/hOsten1009.7 hPa0.0 mm0.0 mm/h
20.06.2021 - 11.15Uhr24.1 °C19.0 °C73 %691.0 W/m²5.2 km/hOsten12.2 km/hSüdosten1009.7 hPa0.0 mm0.0 mm/h
20.06.2021 - 11.20Uhr24.0 °C18.3 °C71 %559.0 W/m²7.2 km/hOst-SO16.2 km/hSüdosten1009.6 hPa0.0 mm0.0 mm/h
20.06.2021 - 11.25Uhr23.9 °C18.4 °C72 %592.0 W/m²3.4 km/hOst-SO8.3 km/hOsten1009.6 hPa0.0 mm0.0 mm/h
20.06.2021 - 11.30Uhr24.2 °C19.2 °C73 %575.0 W/m²1.8 km/hOsten5.8 km/hOsten1009.4 hPa0.0 mm0.0 mm/h
20.06.2021 - 11.35Uhr24.4 °C19.2 °C72 %664.0 W/m²1.9 km/hOsten8.3 km/hOsten1009.3 hPa0.0 mm0.0 mm/h
20.06.2021 - 11.40Uhr24.5 °C18.8 °C70 %703.0 W/m²2.5 km/hOsten8.3 km/hOst-NO1009.3 hPa0.0 mm0.0 mm/h
20.06.2021 - 11.45Uhr24.6 °C19.1 °C71 %671.0 W/m²2.7 km/hOsten12.2 km/hNord-NO1009.1 hPa0.0 mm0.0 mm/h
20.06.2021 - 11.50Uhr24.7 °C19.2 °C72 %564.0 W/m²2.4 km/hNord-NO8.3 km/hNord-NO1009.1 hPa0.0 mm0.0 mm/h
20.06.2021 - 11.55Uhr24.5 °C18.7 °C70 %619.0 W/m²4.0 km/hOsten8.3 km/hOsten1008.9 hPa0.0 mm0.0 mm/h
20.06.2021 - 12.00Uhr24.9 °C18.8 °C69 %744.0 W/m²2.9 km/hOsten8.3 km/hOsten1008.9 hPa0.0 mm0.0 mm/h
20.06.2021 - 12.05Uhr25.2 °C19.1 °C69 %768.0 W/m²4.1 km/hOsten12.2 km/hOst-NO1009.0 hPa0.0 mm0.0 mm/h
20.06.2021 - 12.10Uhr25.3 °C18.9 °C68 %717.0 W/m²6.7 km/hOsten18.0 km/hOst-SO1008.9 hPa0.0 mm0.0 mm/h
20.06.2021 - 12.15Uhr25.3 °C18.6 °C66 %710.0 W/m²10.1 km/hSüdosten16.2 km/hOst-SO1008.8 hPa0.0 mm0.0 mm/h
20.06.2021 - 12.20Uhr25.1 °C18.4 °C67 %740.0 W/m²12.0 km/hOst-SO18.0 km/hOst-SO1008.8 hPa0.0 mm0.0 mm/h
20.06.2021 - 12.25Uhr25.1 °C18.6 °C67 %740.0 W/m²11.5 km/hSüdosten16.2 km/hSüdosten1008.7 hPa0.0 mm0.0 mm/h
20.06.2021 - 12.30Uhr25.2 °C18.5 °C66 %670.0 W/m²11.7 km/hSüdosten18.0 km/hSüdosten1008.8 hPa0.0 mm0.0 mm/h
20.06.2021 - 12.35Uhr25.3 °C18.8 °C67 %842.0 W/m²9.9 km/hOst-SO18.0 km/hOst-SO1008.6 hPa0.0 mm0.0 mm/h
20.06.2021 - 12.40Uhr25.6 °C18.7 °C66 %821.0 W/m²8.4 km/hOst-SO16.2 km/hSüdosten1008.6 hPa0.0 mm0.0 mm/h
20.06.2021 - 12.45Uhr25.7 °C18.4 °C64 %795.0 W/m²11.6 km/hOst-SO18.0 km/hOst-SO1008.6 hPa0.0 mm0.0 mm/h
20.06.2021 - 12.50Uhr25.7 °C17.7 °C61 %795.0 W/m²13.6 km/hOst-SO28.4 km/hSüdosten1008.5 hPa0.0 mm0.0 mm/h
20.06.2021 - 12.55Uhr25.8 °C18.0 °C62 %786.0 W/m²9.0 km/hOst-SO16.2 km/hOst-SO1008.4 hPa0.0 mm0.0 mm/h
20.06.2021 - 13.00Uhr26.1 °C18.3 °C62 %749.0 W/m²11.7 km/hOst-SO24.5 km/hOst-SO1008.3 hPa0.0 mm0.0 mm/h
20.06.2021 - 13.05Uhr26.1 °C18.2 °C62 %830.0 W/m²13.6 km/hOst-SO24.5 km/hOst-SO1008.3 hPa0.0 mm0.0 mm/h
20.06.2021 - 13.10Uhr26.2 °C18.4 °C62 %837.0 W/m²12.9 km/hOst-SO22.0 km/hOst-SO1008.2 hPa0.0 mm0.0 mm/h
20.06.2021 - 13.15Uhr26.4 °C18.4 °C62 %854.0 W/m²12.9 km/hOst-SO16.2 km/hOsten1008.1 hPa0.0 mm0.0 mm/h
20.06.2021 - 13.20Uhr26.7 °C18.6 °C61 %858.0 W/m²12.1 km/hSüdosten22.0 km/hSüdosten1008.0 hPa0.0 mm0.0 mm/h
20.06.2021 - 13.25Uhr26.7 °C18.6 °C61 %851.0 W/m²13.6 km/hSüdosten22.0 km/hOst-NO1007.8 hPa0.0 mm0.0 mm/h
20.06.2021 - 13.30Uhr26.7 °C18.5 °C61 %835.0 W/m²14.0 km/hOst-SO22.0 km/hOst-SO1007.6 hPa0.0 mm0.0 mm/h
20.06.2021 - 13.35Uhr26.7 °C18.7 °C62 %944.0 W/m²11.4 km/hOst-SO18.0 km/hSüdosten1007.5 hPa0.0 mm0.0 mm/h
20.06.2021 - 13.40Uhr26.8 °C18.6 °C61 %900.0 W/m²13.9 km/hOst-SO24.5 km/hSüdosten1007.4 hPa0.0 mm0.0 mm/h
20.06.2021 - 13.45Uhr26.9 °C18.7 °C61 %831.0 W/m²12.1 km/hSüdosten28.4 km/hOst-SO1007.4 hPa0.0 mm0.0 mm/h
20.06.2021 - 13.50Uhr27.1 °C19.1 °C62 %853.0 W/m²8.1 km/hOst-SO16.2 km/hSüdosten1007.3 hPa0.0 mm0.0 mm/h
20.06.2021 - 13.55Uhr27.3 °C19.1 °C61 %828.0 W/m²7.8 km/hOst-SO16.2 km/hOst-SO1007.2 hPa0.0 mm0.0 mm/h
20.06.2021 - 14.00Uhr27.3 °C18.8 °C60 %926.0 W/m²10.1 km/hOst-SO16.2 km/hOsten1006.9 hPa0.0 mm0.0 mm/h
20.06.2021 - 14.05Uhr27.6 °C19.0 °C59 %928.0 W/m²7.7 km/hOsten20.2 km/hNorden1006.7 hPa0.0 mm0.0 mm/h
20.06.2021 - 14.10Uhr28.0 °C19.4 °C60 %914.0 W/m²6.1 km/hOst-SO16.2 km/hOst-SO1006.7 hPa0.0 mm0.0 mm/h
20.06.2021 - 14.15Uhr28.3 °C19.5 °C59 %907.0 W/m²11.4 km/hOst-SO34.2 km/hOst-SO1006.9 hPa0.0 mm0.0 mm/h
20.06.2021 - 14.20Uhr28.0 °C18.9 °C58 %911.0 W/m²9.4 km/hOsten22.0 km/hOst-SO1006.8 hPa0.0 mm0.0 mm/h
20.06.2021 - 14.25Uhr28.1 °C19.4 °C59 %877.0 W/m²9.1 km/hOst-SO22.0 km/hOsten1006.6 hPa0.0 mm0.0 mm/h
20.06.2021 - 14.30Uhr28.1 °C19.1 °C58 %853.0 W/m²5.1 km/hNordosten14.0 km/hOst-SO1006.5 hPa0.0 mm0.0 mm/h
20.06.2021 - 14.35Uhr28.5 °C19.8 °C59 %842.0 W/m²8.8 km/hNord-NO22.0 km/hOst-NO1006.3 hPa0.0 mm0.0 mm/h
20.06.2021 - 14.40Uhr28.6 °C19.5 °C58 %846.0 W/m²5.3 km/hNordosten14.0 km/hOsten1006.1 hPa0.0 mm0.0 mm/h
20.06.2021 - 14.45Uhr28.7 °C19.3 °C57 %846.0 W/m²3.9 km/hOst-SO12.2 km/hOst-SO1005.9 hPa0.0 mm0.0 mm/h
20.06.2021 - 14.50Uhr28.8 °C19.5 °C57 %874.0 W/m²6.1 km/hNordosten24.5 km/hOst-SO1005.7 hPa0.0 mm0.0 mm/h
20.06.2021 - 14.55Uhr28.9 °C19.4 °C57 %891.0 W/m²7.3 km/hOsten14.0 km/hOst-SO1005.5 hPa0.0 mm0.0 mm/h
20.06.2021 - 15.00Uhr28.8 °C18.9 °C55 %918.0 W/m²7.6 km/hNord-NO22.0 km/hOsten1005.4 hPa0.0 mm0.0 mm/h
20.06.2021 - 15.05Uhr28.4 °C19.5 °C58 %642.0 W/m²2.7 km/hOsten8.3 km/hNord-NO1005.4 hPa0.0 mm0.0 mm/h
20.06.2021 - 15.10Uhr28.5 °C19.6 °C59 %642.0 W/m²7.7 km/hNorden24.5 km/hOst-SO1005.3 hPa0.0 mm0.0 mm/h
20.06.2021 - 15.15Uhr28.5 °C19.8 °C59 %587.0 W/m²4.3 km/hOsten12.2 km/hOsten1005.3 hPa0.0 mm0.0 mm/h
20.06.2021 - 15.20Uhr28.3 °C19.2 °C58 %343.0 W/m²6.9 km/hOsten14.0 km/hSüdosten1005.1 hPa0.0 mm0.0 mm/h
20.06.2021 - 15.25Uhr28.1 °C18.5 °C56 %276.0 W/m²6.2 km/hOsten14.0 km/hNordosten1005.1 hPa0.0 mm0.0 mm/h
20.06.2021 - 15.30Uhr27.8 °C18.6 °C57 %290.0 W/m²5.3 km/hOsten12.2 km/hOsten1004.9 hPa0.0 mm0.0 mm/h
20.06.2021 - 15.35Uhr27.7 °C18.2 °C57 %283.0 W/m²8.0 km/hOst-NO16.2 km/hSüdosten1004.9 hPa0.0 mm0.0 mm/h
20.06.2021 - 15.40Uhr27.6 °C18.0 °C56 %244.0 W/m²8.4 km/hOsten16.2 km/hOsten1004.9 hPa0.0 mm0.0 mm/h
20.06.2021 - 15.45Uhr27.4 °C18.0 °C57 %192.0 W/m²8.9 km/hOst-NO16.2 km/hNord-NO1004.7 hPa0.0 mm0.0 mm/h
20.06.2021 - 15.50Uhr27.3 °C18.2 °C58 %160.0 W/m²8.1 km/hOsten22.0 km/hOst-SO1004.5 hPa0.0 mm0.0 mm/h
20.06.2021 - 15.55Uhr27.1 °C18.2 °C58 %139.0 W/m²9.5 km/hOst-SO22.0 km/hOst-SO1004.5 hPa0.0 mm0.0 mm/h
20.06.2021 - 16.00Uhr27.1 °C18.2 °C58 %120.0 W/m²7.4 km/hOsten18.0 km/hOst-SO1004.4 hPa0.0 mm0.0 mm/h
20.06.2021 - 16.05Uhr27.1 °C18.5 °C59 %90.0 W/m²6.5 km/hOsten16.2 km/hOsten1004.3 hPa0.0 mm0.0 mm/h
20.06.2021 - 16.10Uhr26.8 °C18.5 °C60 %60.0 W/m²6.6 km/hNordosten20.2 km/hOsten1004.2 hPa0.0 mm0.0 mm/h
20.06.2021 - 16.15Uhr26.6 °C18.9 °C63 %44.0 W/m²2.5 km/hOst-NO5.8 km/hOst-NO1004.2 hPa0.0 mm0.0 mm/h
20.06.2021 - 16.20Uhr26.3 °C18.7 °C63 %39.0 W/m²1.1 km/hOst-NO4.0 km/hOst-NO1004.4 hPa0.0 mm0.0 mm/h
20.06.2021 - 16.25Uhr26.3 °C18.9 °C64 %33.0 W/m²2.9 km/hOst-NO8.3 km/hNord-NO1004.4 hPa0.0 mm0.0 mm/h
20.06.2021 - 16.30Uhr26.5 °C18.8 °C63 %28.0 W/m²4.0 km/hOsten12.2 km/hSüdosten1004.3 hPa0.0 mm0.0 mm/h
20.06.2021 - 16.35Uhr26.5 °C18.9 °C63 %23.0 W/m²4.4 km/hOsten10.1 km/hOsten1004.2 hPa0.0 mm0.0 mm/h
20.06.2021 - 16.40Uhr26.4 °C18.8 °C63 %21.0 W/m²4.3 km/hOsten12.2 km/hSüdosten1004.2 hPa0.0 mm0.0 mm/h
20.06.2021 - 16.45Uhr26.5 °C18.7 °C62 %16.0 W/m²2.3 km/hSüdosten8.3 km/hSüdosten1004.2 hPa0.0 mm0.0 mm/h
20.06.2021 - 16.50Uhr26.3 °C18.8 °C64 %12.0 W/m²3.0 km/hOst-NO10.1 km/hOst-NO1004.2 hPa0.0 mm0.0 mm/h
20.06.2021 - 16.55Uhr26.1 °C18.9 °C64 %11.0 W/m²2.9 km/hOst-NO8.3 km/hOst-NO1004.2 hPa0.0 mm0.0 mm/h
20.06.2021 - 17.00Uhr26.3 °C18.6 °C63 %9.0 W/m²4.0 km/hOsten8.3 km/hNord-NO1004.2 hPa0.0 mm0.0 mm/h
20.06.2021 - 17.05Uhr26.1 °C19.1 °C65 %7.0 W/m²0.6 km/hOst-NO1.8 km/hOst-NO1004.2 hPa0.0 mm0.0 mm/h
20.06.2021 - 17.10Uhr25.6 °C19.2 °C68 %7.0 W/m²2.0 km/hOst-NO4.0 km/hOst-NO1004.2 hPa0.0 mm0.0 mm/h
20.06.2021 - 17.15Uhr24.8 °C19.2 °C71 %5.0 W/m²1.6 km/hOst-NO5.8 km/hOst-NO1004.3 hPa0.0 mm0.0 mm/h
20.06.2021 - 17.20Uhr24.6 °C19.4 °C73 %5.0 W/m²5.0 km/hOst-NO12.2 km/hWest-NW1004.7 hPa0.0 mm0.0 mm/h
20.06.2021 - 17.25Uhr24.6 °C19.4 °C73 %0.0 W/m²12.3 km/hWest-NW32.4 km/hNordwesten1005.3 hPa0.0 mm0.0 mm/h
20.06.2021 - 17.30Uhr23.5 °C19.5 °C78 %0.0 W/m²20.9 km/hWest-NW40.0 km/hWest-SW1005.7 hPa0.8 mm10.2 mm/h
20.06.2021 - 17.35Uhr21.5 °C18.6 °C83 %0.0 W/m²23.6 km/hWest-NW38.2 km/hWesten1005.8 hPa3.8 mm91.4 mm/h
20.06.2021 - 17.40Uhr20.5 °C17.9 °C85 %0.0 W/m²27.1 km/hWest-NW60.5 km/hWest-NW1005.9 hPa3.0 mm88.0 mm/h
20.06.2021 - 17.45Uhr19.9 °C17.3 °C85 %0.0 W/m²31.5 km/hWesten66.6 km/hWest-NW1006.0 hPa3.8 mm79.4 mm/h
20.06.2021 - 17.50Uhr19.6 °C17.1 °C85 %0.0 W/m²22.8 km/hWest-NW38.2 km/hNordwesten1007.0 hPa5.8 mm91.4 mm/h
20.06.2021 - 17.55Uhr19.0 °C16.4 °C85 %0.0 W/m²15.9 km/hWest-NW32.4 km/hWest-SW1007.9 hPa6.0 mm250.4 mm/h
20.06.2021 - 18.00Uhr18.1 °C15.4 °C85 %7.0 W/m²5.4 km/hOst-NO14.0 km/hNordosten1006.8 hPa6.4 mm250.4 mm/h
20.06.2021 - 18.05Uhr17.5 °C14.9 °C85 %12.0 W/m²13.7 km/hNord-NO22.0 km/hNorden1005.6 hPa1.6 mm35.4 mm/h
20.06.2021 - 18.10Uhr17.3 °C14.8 °C85 %18.0 W/m²13.4 km/hNorden32.4 km/hNordwesten1004.9 hPa1.4 mm27.8 mm/h
20.06.2021 - 18.15Uhr17.4 °C14.9 °C85 %21.0 W/m²9.3 km/hNord-NO24.5 km/hNord-NO1004.8 hPa0.0 mm6.2 mm/h
20.06.2021 - 18.20Uhr17.8 °C15.2 °C85 %23.0 W/m²7.7 km/hOst-NO22.0 km/hOst-NO1004.5 hPa0.0 mm2.0 mm/h
20.06.2021 - 18.25Uhr18.1 °C15.5 °C85 %25.0 W/m²4.0 km/hOst-NO12.2 km/hWest-NW1004.3 hPa0.0 mm1.0 mm/h
20.06.2021 - 18.30Uhr17.9 °C15.3 °C85 %26.0 W/m²0.3 km/hWest-NW1.8 km/hWest-NW1003.9 hPa0.0 mm0.8 mm/h
20.06.2021 - 18.35Uhr17.6 °C15.0 °C85 %28.0 W/m²6.0 km/hWest-NW8.3 km/hSüd-SO1004.0 hPa0.0 mm0.0 mm/h
20.06.2021 - 18.40Uhr17.8 °C15.2 °C85 %28.0 W/m²1.7 km/hSüd-SO10.1 km/hSüd-SO1004.2 hPa0.0 mm0.0 mm/h
20.06.2021 - 18.45Uhr17.8 °C15.2 °C85 %30.0 W/m²6.4 km/hSüd-SO12.2 km/hSüdosten1004.3 hPa0.0 mm0.0 mm/h
20.06.2021 - 18.50Uhr17.9 °C15.3 °C85 %33.0 W/m²2.9 km/hOst-SO10.1 km/hOst-SO1004.5 hPa0.0 mm0.0 mm/h
20.06.2021 - 18.55Uhr17.9 °C15.3 °C85 %33.0 W/m²4.5 km/hSüd-SO10.1 km/hSüd-SO1004.5 hPa0.0 mm0.0 mm/h
20.06.2021 - 19.00Uhr17.9 °C15.3 °C85 %35.0 W/m²0.0 km/hSüd-SO0.0 km/hNorden1005.0 hPa0.0 mm0.0 mm/h
20.06.2021 - 19.05Uhr17.9 °C15.3 °C85 %35.0 W/m²0.0 km/hSüd-SO0.0 km/hNorden1005.2 hPa0.0 mm0.0 mm/h
20.06.2021 - 19.10Uhr17.8 °C15.2 °C85 %37.0 W/m²1.6 km/hSüd-SO8.3 km/hSüd-SO1005.5 hPa0.0 mm0.0 mm/h
20.06.2021 - 19.15Uhr17.7 °C15.1 °C85 %39.0 W/m²1.0 km/hSüd-SO4.0 km/hSüd-SO1005.8 hPa0.0 mm0.0 mm/h
20.06.2021 - 19.20Uhr17.8 °C15.2 °C85 %42.0 W/m²0.4 km/hSüd-SO1.8 km/hSüd-SO1006.2 hPa0.0 mm0.0 mm/h
20.06.2021 - 19.25Uhr17.8 °C15.2 °C85 %44.0 W/m²1.2 km/hSüd-SO4.0 km/hSüd-SO1006.6 hPa0.0 mm0.0 mm/h
20.06.2021 - 19.30Uhr17.9 °C15.3 °C85 %44.0 W/m²9.5 km/hSüdosten12.2 km/hSüdosten1006.8 hPa0.0 mm0.0 mm/h
20.06.2021 - 19.35Uhr18.0 °C15.4 °C85 %42.0 W/m²3.5 km/hSüdosten10.1 km/hSüdosten1007.1 hPa0.0 mm0.0 mm/h
20.06.2021 - 19.40Uhr18.2 °C15.6 °C85 %39.0 W/m²5.1 km/hWesten12.2 km/hWesten1007.6 hPa0.0 mm0.0 mm/h
20.06.2021 - 19.45Uhr18.4 °C15.8 °C85 %30.0 W/m²16.7 km/hWest-NW34.2 km/hWest-SW1007.9 hPa0.0 mm0.0 mm/h
20.06.2021 - 19.50Uhr18.9 °C16.3 °C85 %30.0 W/m²28.3 km/hWest-NW46.4 km/hWesten1008.0 hPa0.0 mm0.0 mm/h
20.06.2021 - 19.55Uhr18.9 °C16.2 °C85 %26.0 W/m²31.6 km/hWest-NW54.4 km/hWesten1008.0 hPa0.0 mm0.0 mm/h
20.06.2021 - 20.00Uhr18.2 °C15.7 °C85 %21.0 W/m²33.4 km/hWest-NW48.2 km/hWesten1008.3 hPa0.0 mm0.0 mm/h
20.06.2021 - 20.05Uhr17.6 °C15.0 °C85 %0.0 W/m²29.0 km/hWest-NW48.2 km/hWesten1008.8 hPa0.0 mm0.0 mm/h
20.06.2021 - 20.10Uhr17.3 °C14.8 °C85 %0.0 W/m²25.1 km/hWest-NW34.2 km/hWesten1009.0 hPa0.2 mm0.0 mm/h
20.06.2021 - 20.15Uhr17.1 °C14.6 °C85 %5.0 W/m²21.1 km/hWest-NW34.2 km/hWesten1009.0 hPa0.8 mm29.4 mm/h
20.06.2021 - 20.20Uhr16.7 °C14.2 °C85 %7.0 W/m²12.1 km/hWest-NW28.4 km/hWesten1008.7 hPa1.0 mm22.0 mm/h
20.06.2021 - 20.25Uhr16.6 °C14.1 °C85 %9.0 W/m²5.6 km/hNord-NW12.2 km/hNord-NW1008.7 hPa0.2 mm17.0 mm/h
20.06.2021 - 20.30Uhr16.4 °C13.9 °C85 %9.0 W/m²4.4 km/hNorden8.3 km/hNorden1008.8 hPa0.0 mm2.4 mm/h
20.06.2021 - 20.35Uhr16.5 °C14.0 °C85 %7.0 W/m²4.3 km/hWest-NW12.2 km/hWest-NW1008.8 hPa0.0 mm1.2 mm/h
20.06.2021 - 20.40Uhr16.3 °C13.8 °C85 %0.0 W/m²6.2 km/hWest-NW12.2 km/hWest-NW1008.8 hPa0.0 mm0.8 mm/h
20.06.2021 - 20.45Uhr16.2 °C13.7 °C85 %0.0 W/m²8.5 km/hNorden16.2 km/hNorden1008.2 hPa0.4 mm10.4 mm/h
20.06.2021 - 20.50Uhr16.1 °C13.6 °C85 %0.0 W/m²3.8 km/hNord-NW8.3 km/hOsten1007.9 hPa0.4 mm5.8 mm/h
20.06.2021 - 20.55Uhr16.1 °C13.7 °C85 %0.0 W/m²8.8 km/hOst-SO12.2 km/hOst-SO1007.7 hPa0.0 mm4.0 mm/h
20.06.2021 - 21.00Uhr16.1 °C13.6 °C85 %0.0 W/m²6.6 km/hOst-SO12.2 km/hOst-SO1007.3 hPa0.0 mm2.0 mm/h
20.06.2021 - 21.05Uhr16.2 °C13.7 °C85 %0.0 W/m²4.5 km/hOst-SO8.3 km/hOst-SO1007.5 hPa0.0 mm1.0 mm/h